Time;durP1;ratioP1;P1;durP2;ratioP2;P2;SDS_P1;SDS_P2;PMS_P1;PMS_P2;Temp;Humidity;BMP_temperature;BMP_pressure;BME280_temperature;BME280_humidity;BME280_pressure;Samples;Min_cycle;Max_cycle;Signal;HPM_P1;HPM_P2
2022/02/24 00:00:50;;;;;;;12.82;4.07;;;;;;;8.01;65.21;101329.75;5055105;28;20045;-66
2022/02/24 00:03:17;;;;;;;16.65;4.32;;;;;;;8.04;64.97;101334.78;5037311;28;20098;-66
2022/02/24 00:05:44;;;;;;;17.83;4.32;;;;;;;8.05;65.04;101332.97;5054563;28;20068;-66
2022/02/24 00:08:12;;;;;;;18.55;3.97;;;;;;;8.04;65.18;101326.88;5020485;28;20551;-66
2022/02/24 00:10:39;;;;;;;19.02;4.10;;;;;;;7.99;65.52;101326.38;5053314;28;20048;-66
2022/02/24 00:13:05;;;;;;;12.63;4.03;;;;;;;8.08;65.05;101328.28;5053563;28;20067;-66
2022/02/24 00:15:32;;;;;;;17.52;3.70;;;;;;;8.02;64.53;101323.50;5053349;28;20496;-66
2022/02/24 00:17:59;;;;;;;20.45;4.38;;;;;;;8.03;65.16;101322.53;5053441;28;20110;-66
2022/02/24 00:20:26;;;;;;;15.70;4.20;;;;;;;7.99;65.37;101315.00;5036633;28;20055;-66
2022/02/24 00:22:52;;;;;;;12.68;3.97;;;;;;;7.95;65.47;101314.41;5073306;28;20037;-66
2022/02/24 00:25:19;;;;;;;17.00;4.40;;;;;;;7.91;65.46;101312.94;5074500;28;20037;-66
2022/02/24 00:27:46;;;;;;;13.57;3.72;;;;;;;8.00;65.20;101312.19;5073440;28;20048;-66
2022/02/24 00:30:13;;;;;;;18.42;4.40;;;;;;;8.06;64.91;101305.59;5072609;28;20048;-66
2022/02/24 00:32:40;;;;;;;15.48;4.22;;;;;;;7.99;65.75;101297.31;5074666;28;20062;-66
2022/02/24 00:35:08;;;;;;;16.02;3.97;;;;;;;7.99;66.26;101296.50;5072726;28;20049;-66
2022/02/24 00:37:35;;;;;;;16.58;3.97;;;;;;;8.01;66.66;101297.22;5074354;28;20082;-66
2022/02/24 00:40:02;;;;;;;14.60;4.00;;;;;;;8.00;65.44;101311.38;5060527;28;20056;-66
2022/02/24 00:42:30;;;;;;;18.77;4.30;;;;;;;8.03;65.97;101304.03;5036700;28;20048;-66
2022/02/24 00:44:57;;;;;;;21.40;4.28;;;;;;;7.99;65.38;101299.97;5052723;28;20412;-66
2022/02/24 00:47:24;;;;;;;20.75;4.45;;;;;;;8.01;65.47;101305.13;5053158;28;20040;-66
2022/02/24 00:49:50;;;;;;;17.35;4.97;;;;;;;7.94;66.08;101303.94;5019520;28;20044;-66
2022/02/24 00:52:17;;;;;;;18.85;3.97;;;;;;;7.94;66.51;101301.31;5051983;28;20040;-66
2022/02/24 00:54:47;;;;;;;13.05;4.05;;;;;;;8.01;65.78;101300.69;5052698;28;20128;-66
2022/02/24 00:57:16;;;;;;;18.38;4.63;;;;;;;7.94;66.32;101294.22;5053130;28;20144;-66
2022/02/24 00:59:43;;;;;;;13.98;4.53;;;;;;;8.00;66.53;101287.59;5052594;28;20041;-66
2022/02/24 01:02:10;;;;;;;21.05;4.40;;;;;;;8.00;65.76;101285.78;5053954;28;20053;-66
2022/02/24 01:04:36;;;;;;;21.52;4.97;;;;;;;8.08;65.33;101280.72;5019805;28;20064;-66
2022/02/24 01:07:03;;;;;;;16.90;4.53;;;;;;;8.02;66.48;101280.38;5053492;28;20562;-66
2022/02/24 01:09:30;;;;;;;16.15;4.03;;;;;;;8.20;65.42;101275.41;5053569;28;20079;-66
2022/02/24 01:11:57;;;;;;;15.73;4.30;;;;;;;8.00;66.09;101269.09;5052497;28;20045;-66
2022/02/24 01:14:24;;;;;;;16.73;4.38;;;;;;;7.97;66.24;101269.38;5036148;28;20382;-66
2022/02/24 01:16:50;;;;;;;19.30;4.93;;;;;;;8.02;65.98;101265.38;5035940;28;20041;-66
2022/02/24 01:19:19;;;;;;;17.38;4.03;;;;;;;8.07;66.48;101265.00;5053323;28;20099;-66
2022/02/24 01:21:46;;;;;;;19.38;4.65;;;;;;;8.04;66.76;101259.94;5052170;28;20040;-66
2022/02/24 01:24:12;;;;;;;19.42;4.80;;;;;;;8.02;66.70;101254.81;5053810;28;20052;-66
2022/02/24 01:26:39;;;;;;;15.93;4.13;;;;;;;8.10;66.58;101256.81;5052002;28;20037;-67
2022/02/24 01:29:06;;;;;;;16.50;4.38;;;;;;;8.04;66.41;101244.94;5052159;28;20048;-65
2022/02/24 01:31:32;;;;;;;24.73;4.90;;;;;;;8.01;67.01;101237.28;5053333;28;20037;-66
2022/02/24 01:33:59;;;;;;;14.95;4.40;;;;;;;8.02;66.64;101235.44;5052336;28;20147;-66
2022/02/24 01:36:28;;;;;;;15.75;4.63;;;;;;;8.08;66.14;101237.63;5035608;28;20049;-66
2022/02/24 01:38:55;;;;;;;20.60;4.50;;;;;;;8.16;65.85;101235.16;5052162;28;20068;-66
2022/02/24 01:41:21;;;;;;;15.77;4.50;;;;;;;8.06;66.31;101232.44;5052131;28;20562;-66
2022/02/24 01:43:48;;;;;;;16.63;5.05;;;;;;;8.01;66.38;101226.69;5035365;28;20448;-66
2022/02/24 01:46:16;;;;;;;17.15;4.63;;;;;;;8.06;66.26;101224.53;5051819;28;20094;-66
2022/02/24 01:48:43;;;;;;;18.20;3.85;;;;;;;8.04;65.77;101223.81;5052974;28;20048;-66
2022/02/24 01:51:10;;;;;;;16.10;4.22;;;;;;;8.03;67.08;101213.38;5051661;28;20551;-66
2022/02/24 01:53:37;;;;;;;19.63;4.65;;;;;;;8.02;66.68;101212.53;5035468;28;20115;-66
2022/02/24 01:56:06;;;;;;;18.60;4.55;;;;;;;8.12;66.48;101202.03;5035438;28;20099;-66
2022/02/24 01:58:33;;;;;;;16.52;4.55;;;;;;;8.04;66.45;101202.69;5035510;28;20044;-66
2022/02/24 02:01:00;;;;;;;17.83;4.65;;;;;;;8.04;65.66;101204.47;5052000;28;20049;-66
2022/02/24 02:03:27;;;;;;;21.02;5.07;;;;;;;8.12;65.91;101183.53;5051531;28;20106;-66
2022/02/24 02:05:57;;;;;;;20.25;4.70;;;;;;;8.12;66.38;101180.91;5052760;28;20090;-66
2022/02/24 02:08:24;;;;;;;19.70;4.75;;;;;;;8.10;66.13;101187.28;5051882;28;20061;-66
2022/02/24 02:10:50;;;;;;;20.35;5.15;;;;;;;8.13;66.24;101179.09;5059175;28;20037;-66
2022/02/24 02:13:17;;;;;;;18.45;4.85;;;;;;;8.05;66.04;101183.19;5053575;28;20041;-66
2022/02/24 02:15:44;;;;;;;16.33;4.50;;;;;;;8.10;65.91;101177.53;5035206;28;20520;-66
2022/02/24 02:18:11;;;;;;;20.17;5.18;;;;;;;8.10;66.22;101166.97;5051934;28;20056;-66
2022/02/24 02:20:39;;;;;;;19.92;4.22;;;;;;;8.08;66.87;101172.38;5050351;28;20051;-66
2022/02/24 02:23:07;;;;;;;17.98;4.85;;;;;;;8.06;66.54;101163.75;5052749;28;20440;-66
2022/02/24 02:25:33;;;;;;;21.13;5.68;;;;;;;8.05;66.70;101163.88;5052603;28;20087;-66
2022/02/24 02:28:00;;;;;;;21.10;4.60;;;;;;;8.07;66.64;101169.88;5051184;28;20072;-66
2022/02/24 02:30:27;;;;;;;18.27;4.60;;;;;;;8.10;66.42;101163.50;5052118;28;20190;-66
2022/02/24 02:32:54;;;;;;;19.67;4.32;;;;;;;8.05;66.84;101158.59;5052710;28;20041;-66
2022/02/24 02:35:22;;;;;;;14.50;4.55;;;;;;;8.03;66.84;101156.06;5035209;28;20094;-66
2022/02/24 02:37:50;;;;;;;20.35;3.95;;;;;;;7.94;67.01;101146.25;5035194;28;20087;-66
2022/02/24 02:40:17;;;;;;;19.65;4.15;;;;;;;7.99;66.92;101136.16;5051393;28;20464;-66
2022/02/24 02:42:44;;;;;;;16.92;3.70;;;;;;;7.98;66.49;101146.84;5052545;28;20068;-66
2022/02/24 02:45:10;;;;;;;14.25;3.80;;;;;;;7.87;66.72;101148.56;5052429;28;20041;-66
2022/02/24 02:47:37;;;;;;;14.48;3.83;;;;;;;7.83;66.91;101141.88;5052499;28;20041;-66
2022/02/24 02:50:05;;;;;;;16.08;3.53;;;;;;;7.85;67.47;101136.47;5052242;28;20037;-66
2022/02/24 02:52:32;;;;;;;18.33;3.97;;;;;;;7.89;66.73;101135.22;5038961;28;20061;-66
2022/02/24 02:55:04;;;;;;;13.40;3.35;;;;;;;7.83;66.76;101133.09;5051492;28;20182;-66
2022/02/24 02:57:32;;;;;;;18.27;3.85;;;;;;;7.84;67.17;101126.84;5051330;28;20044;-66
2022/02/24 02:59:59;;;;;;;19.33;3.90;;;;;;;7.76;68.03;101121.38;5051575;28;20041;-66
2022/02/24 03:02:26;;;;;;;20.67;3.72;;;;;;;7.83;67.44;101119.91;5034519;28;20047;-66
2022/02/24 03:04:54;;;;;;;15.57;3.45;;;;;;;7.78;67.61;101115.00;5051125;28;20037;-66
2022/02/24 03:07:21;;;;;;;15.75;3.72;;;;;;;7.77;68.03;101107.22;5051932;28;20057;-66
2022/02/24 03:09:49;;;;;;;17.27;3.53;;;;;;;7.80;67.89;101097.22;5051117;28;20048;-66
2022/02/24 03:12:16;;;;;;;16.15;3.70;;;;;;;7.87;67.36;101094.91;5052432;28;20052;-66
2022/02/24 03:14:44;;;;;;;16.00;3.75;;;;;;;7.84;68.03;101092.50;5053480;28;20099;-66
2022/02/24 03:17:11;;;;;;;15.38;4.38;;;;;;;7.83;67.53;101088.22;5054752;28;20088;-66
2022/02/24 03:19:39;;;;;;;19.13;3.72;;;;;;;7.98;66.38;101086.91;5056210;28;20045;-66
2022/02/24 03:22:08;;;;;;;14.25;3.97;;;;;;;7.83;67.34;101078.47;5054443;28;20417;-64
2022/02/24 03:24:35;;;;;;;15.57;3.53;;;;;;;7.83;67.10;101083.75;5056197;28;20079;-67
2022/02/24 03:27:03;;;;;;;20.50;3.97;;;;;;;7.90;67.20;101081.44;5054846;28;20095;-65
2022/02/24 03:29:30;;;;;;;15.35;4.07;;;;;;;7.84;68.11;101066.97;5054448;28;20094;-65
2022/02/24 03:31:57;;;;;;;16.08;3.72;;;;;;;7.76;67.75;101071.19;5054479;28;20497;-65
2022/02/24 03:34:24;;;;;;;15.32;3.88;;;;;;;7.83;67.78;101072.38;5031846;28;20052;-65
2022/02/24 03:36:51;;;;;;;19.10;4.40;;;;;;;7.91;67.84;101066.44;5054160;28;20041;-65
2022/02/24 03:39:17;;;;;;;21.63;4.57;;;;;;;7.89;67.46;101061.28;5017939;28;20103;-65
2022/02/24 03:41:44;;;;;;;22.73;4.38;;;;;;;7.91;67.03;101058.50;5035530;28;20125;-65
2022/02/24 03:44:11;;;;;;;16.02;4.43;;;;;;;7.90;67.13;101056.84;5035380;28;20055;-65
2022/02/24 03:46:38;;;;;;;16.88;4.97;;;;;;;8.00;67.39;101052.44;5035489;28;20044;-65
2022/02/24 03:49:04;;;;;;;20.30;4.75;;;;;;;7.98;66.66;101042.00;5034069;28;20045;-65
2022/02/24 03:51:31;;;;;;;14.35;4.15;;;;;;;8.01;66.31;101043.56;5030097;28;20041;-65
2022/02/24 03:54:00;;;;;;;20.17;4.53;;;;;;;7.97;67.39;101032.41;5055012;28;20041;-65
2022/02/24 03:56:27;;;;;;;20.50;3.85;;;;;;;7.93;66.84;101030.16;5054014;28;20106;-65
2022/02/24 03:58:54;;;;;;;24.05;3.90;;;;;;;7.94;66.24;101029.19;5055054;28;20051;-65
2022/02/24 04:01:21;;;;;;;14.63;3.97;;;;;;;7.96;67.12;101020.16;5055188;28;20041;-65
2022/02/24 04:03:48;;;;;;;19.85;3.95;;;;;;;7.98;66.95;101020.88;5053953;28;20052;-65
2022/02/24 04:06:15;;;;;;;15.13;4.18;;;;;;;8.01;66.97;101023.25;5054396;28;20041;-66
2022/02/24 04:08:42;;;;;;;15.75;3.88;;;;;;;7.97;67.52;101016.56;5055020;28;20044;-67
2022/02/24 04:11:09;;;;;;;14.05;3.45;;;;;;;7.98;67.32;101010.28;5054665;28;20037;-66
2022/02/24 04:13:36;;;;;;;15.95;3.97;;;;;;;8.00;66.32;101008.34;5054084;28;20056;-65
2022/02/24 04:16:05;;;;;;;12.00;3.80;;;;;;;7.99;67.36;101004.06;5054041;28;20045;-65
2022/02/24 04:18:32;;;;;;;13.20;4.22;;;;;;;7.98;67.67;101005.00;5056037;28;20481;-65
2022/02/24 04:20:58;;;;;;;20.08;3.90;;;;;;;7.98;66.74;101006.81;5058145;28;20091;-66
2022/02/24 04:23:25;;;;;;;12.52;3.72;;;;;;;7.94;66.73;101008.06;5048109;28;20515;-65
2022/02/24 04:25:52;;;;;;;14.60;3.38;;;;;;;8.02;66.90;101000.31;5073804;28;20056;-66
2022/02/24 04:28:21;;;;;;;18.45;3.78;;;;;;;7.96;66.84;101004.31;5073415;28;20041;-66
2022/02/24 04:30:48;;;;;;;15.32;4.15;;;;;;;7.96;67.14;100998.19;5056639;28;20354;-66
2022/02/24 04:33:15;;;;;;;15.65;5.10;;;;;;;8.00;67.28;101002.25;5073050;28;20085;-65
2022/02/24 04:35:42;;;;;;;17.48;4.63;;;;;;;8.09;66.80;100993.53;5056586;28;20094;-66
2022/02/24 04:38:10;;;;;;;21.05;4.93;;;;;;;8.01;65.84;100996.84;5057066;28;20036;-65
2022/02/24 04:40:37;;;;;;;13.32;4.22;;;;;;;8.06;66.33;100994.66;5056966;28;20055;-65
2022/02/24 04:43:04;;;;;;;17.58;5.03;;;;;;;7.94;67.61;100989.56;5053013;28;20048;-66
2022/02/24 04:45:31;;;;;;;16.33;4.55;;;;;;;7.94;67.00;100979.00;5030369;28;20045;-65
2022/02/24 04:47:58;;;;;;;15.18;4.38;;;;;;;7.92;66.70;100984.41;5052976;28;20056;-65
2022/02/24 04:50:24;;;;;;;17.73;4.45;;;;;;;7.87;67.38;100981.31;5052541;28;20036;-65
2022/02/24 04:52:51;;;;;;;14.57;4.05;;;;;;;7.82;67.39;100975.59;5052422;28;20045;-66
2022/02/24 04:55:18;;;;;;;16.30;3.92;;;;;;;7.79;67.66;100967.94;5053232;28;20440;-65
2022/02/24 04:57:45;;;;;;;15.15;3.60;;;;;;;7.88;66.90;100980.38;5053911;28;20408;-66
2022/02/24 05:00:13;;;;;;;13.82;3.90;;;;;;;7.88;67.25;100965.34;5052912;28;20041;-66
2022/02/24 05:02:40;;;;;;;13.63;3.97;;;;;;;7.89;67.35;100958.25;5054010;28;20041;-65
2022/02/24 05:05:08;;;;;;;15.13;3.47;;;;;;;7.94;66.66;100949.94;5053787;28;20182;-65
2022/02/24 05:07:35;;;;;;;18.33;4.40;;;;;;;7.94;66.75;100947.31;5053450;28;20051;-65
2022/02/24 05:10:03;;;;;;;13.38;3.53;;;;;;;7.93;67.25;100930.63;5052567;28;20052;-66
2022/02/24 05:12:30;;;;;;;23.70;4.20;;;;;;;7.91;66.74;100932.53;5052314;28;20528;-65
2022/02/24 05:14:56;;;;;;;19.70;4.05;;;;;;;7.83;67.23;100921.81;5052668;28;20131;-66
2022/02/24 05:17:23;;;;;;;17.77;3.65;;;;;;;7.85;67.49;100906.66;5035852;28;20041;-66
2022/02/24 05:19:50;;;;;;;19.25;3.65;;;;;;;7.84;66.76;100900.56;5003646;28;20053;-66
2022/02/24 05:22:17;;;;;;;15.75;3.58;;;;;;;7.87;67.28;100899.44;5052198;28;20068;-66
2022/02/24 05:24:43;;;;;;;17.33;3.78;;;;;;;7.97;67.44;100897.69;5053563;28;20041;-65
2022/02/24 05:27:10;;;;;;;18.08;3.83;;;;;;;7.95;67.12;100898.78;5035931;28;20052;-66
2022/02/24 05:29:37;;;;;;;16.70;3.67;;;;;;;7.91;67.04;100892.91;5053179;28;20044;-66
2022/02/24 05:32:04;;;;;;;13.35;3.50;;;;;;;7.92;67.73;100891.13;5053455;28;20037;-65
2022/02/24 05:34:31;;;;;;;15.18;4.00;;;;;;;7.89;67.25;100889.56;5052078;28;20091;-65
2022/02/24 05:36:58;;;;;;;15.68;3.58;;;;;;;7.89;67.55;100884.28;5051530;28;20044;-67
2022/02/24 05:39:24;;;;;;;18.70;4.00;;;;;;;7.95;67.36;100882.91;5053148;28;20037;-66
2022/02/24 05:41:52;;;;;;;20.90;3.75;;;;;;;7.92;67.39;100883.22;5053433;28;20040;-66
2022/02/24 05:44:19;;;;;;;15.25;4.10;;;;;;;7.90;67.21;100878.06;5035628;28;20041;-65
2022/02/24 05:46:46;;;;;;;17.70;4.00;;;;;;;7.95;67.21;100880.28;5051962;28;20068;-66
2022/02/24 05:49:15;;;;;;;13.90;4.18;;;;;;;7.88;67.69;100872.91;5051321;28;20381;-66
2022/02/24 05:51:42;;;;;;;13.85;3.95;;;;;;;7.90;67.01;100870.13;5051615;28;20037;-66
2022/02/24 05:54:09;;;;;;;16.67;3.95;;;;;;;7.89;67.59;100868.44;5052838;28;20440;-65
2022/02/24 05:56:36;;;;;;;18.90;5.40;;;;;;;7.85;68.14;100861.75;5052148;28;20040;-65
2022/02/24 05:59:04;;;;;;;16.73;3.83;;;;;;;7.83;67.48;100871.63;5052906;28;20505;-64
2022/02/24 06:01:32;;;;;;;20.25;3.85;;;;;;;7.84;67.52;100871.50;5052068;28;20037;-65
2022/02/24 06:03:59;;;;;;;15.30;4.30;;;;;;;7.85;67.51;100870.50;5049802;28;20041;-65
2022/02/24 06:06:25;;;;;;;12.55;3.42;;;;;;;7.82;67.64;100869.94;5046374;28;20563;-66
2022/02/24 06:08:52;;;;;;;14.38;3.33;;;;;;;7.80;67.68;100871.88;5034394;28;20041;-66
2022/02/24 06:11:19;;;;;;;12.50;3.65;;;;;;;7.78;67.57;100885.22;5034715;28;20069;-66
2022/02/24 06:13:46;;;;;;;11.80;3.50;;;;;;;7.76;67.49;100879.22;5051977;28;20053;-65
2022/02/24 06:16:12;;;;;;;12.77;3.30;;;;;;;7.82;66.80;100872.59;5035277;28;20497;-66
2022/02/24 06:18:41;;;;;;;14.15;3.58;;;;;;;7.83;66.70;100877.75;5052550;28;20041;-66
2022/02/24 06:21:07;;;;;;;14.93;3.10;;;;;;;7.90;67.39;100874.59;5051508;28;20493;-66
2022/02/24 06:23:34;;;;;;;16.67;3.45;;;;;;;7.82;67.18;100878.72;5039952;28;20040;-66
2022/02/24 06:26:01;;;;;;;17.15;3.70;;;;;;;7.96;67.35;100872.22;5071055;28;20447;-66
2022/02/24 06:28:29;;;;;;;25.83;3.65;;;;;;;7.80;67.37;100870.06;5054122;28;20628;-65
2022/02/24 06:30:56;;;;;;;13.65;2.97;;;;;;;7.90;67.43;100875.41;5071149;28;20040;-66
2022/02/24 06:33:23;;;;;;;14.68;3.22;;;;;;;7.91;66.23;100873.59;5074710;28;20048;-65
2022/02/24 06:35:49;;;;;;;11.00;2.70;;;;;;;7.94;65.86;100868.06;5074087;28;20056;-66
2022/02/24 06:38:16;;;;;;;15.43;3.20;;;;;;;7.97;66.08;100875.72;5072836;28;20052;-65
2022/02/24 06:40:43;;;;;;;15.07;2.75;;;;;;;7.97;65.87;100868.63;5035286;28;20045;-66
2022/02/24 06:43:09;;;;;;;10.82;2.88;;;;;;;8.00;66.06;100870.97;5051106;28;20052;-66
2022/02/24 06:45:36;;;;;;;10.07;2.70;;;;;;;8.04;66.24;100867.13;5051172;28;20424;-66
2022/02/24 06:48:04;;;;;;;12.85;3.08;;;;;;;7.93;66.17;100859.31;5051372;28;20051;-66
2022/02/24 06:50:30;;;;;;;13.93;2.90;;;;;;;8.05;65.64;100847.63;5052906;28;20037;-66
2022/02/24 06:52:59;;;;;;;15.55;3.15;;;;;;;7.97;66.24;100850.13;5054667;28;20045;-66
2022/02/24 06:55:28;;;;;;;13.23;2.90;;;;;;;8.02;65.65;100847.06;5054725;28;20047;-66
2022/02/24 06:57:54;;;;;;;18.63;2.65;;;;;;;7.91;65.46;100842.72;5054828;28;20051;-66
2022/02/24 07:00:23;;;;;;;14.60;2.95;;;;;;;8.02;66.21;100837.38;5054831;28;20072;-66
2022/02/24 07:02:52;;;;;;;13.63;2.63;;;;;;;7.95;66.07;100840.66;5013788;28;20050;-65
2022/02/24 07:05:19;;;;;;;12.20;2.80;;;;;;;7.96;66.24;100840.53;5052966;28;20049;-66
2022/02/24 07:07:46;;;;;;;11.88;2.80;;;;;;;7.95;65.98;100838.00;5054513;28;20461;-66
2022/02/24 07:10:14;;;;;;;12.50;2.80;;;;;;;7.95;66.47;100833.59;5038199;28;20063;-66
2022/02/24 07:12:42;;;;;;;11.85;2.80;;;;;;;7.97;65.87;100836.09;5056003;28;20404;-65
2022/02/24 07:15:10;;;;;;;7.45;2.40;;;;;;;7.93;66.24;100835.53;5056107;28;20051;-65
2022/02/24 07:17:40;;;;;;;11.10;3.13;;;;;;;7.87;65.78;100836.88;5055750;28;20037;-66
2022/02/24 07:20:08;;;;;;;15.70;2.80;;;;;;;7.92;65.90;100825.09;5054590;28;20493;-66
2022/02/24 07:22:35;;;;;;;9.02;2.38;;;;;;;8.05;64.93;100830.97;5054491;28;20045;-65
2022/02/24 07:25:03;;;;;;;15.65;2.90;;;;;;;8.01;65.51;100825.09;5055944;28;20057;-66
2022/02/24 07:27:31;;;;;;;11.70;3.03;;;;;;;8.05;65.26;100823.03;5054942;28;20073;-65
2022/02/24 07:29:59;;;;;;;9.82;2.50;;;;;;;8.02;64.77;100821.50;5055108;28;20492;-66
2022/02/24 07:32:26;;;;;;;9.73;2.33;;;;;;;8.03;64.79;100824.97;5054344;28;20125;-65
2022/02/24 07:34:52;;;;;;;16.98;3.53;;;;;;;8.09;64.89;100816.50;5055411;28;20498;-65
2022/02/24 07:37:19;;;;;;;14.88;2.92;;;;;;;8.01;64.67;100806.63;5054038;28;20409;-66
2022/02/24 07:39:46;;;;;;;12.32;2.72;;;;;;;7.98;65.57;100801.59;5053869;28;20041;-65
2022/02/24 07:42:13;;;;;;;12.93;2.65;;;;;;;7.98;65.29;100795.47;5037984;28;20044;-65
2022/02/24 07:44:40;;;;;;;13.32;2.45;;;;;;;8.12;64.41;100800.38;5053545;28;20045;-66
2022/02/24 07:47:07;;;;;;;14.63;2.50;;;;;;;8.12;64.83;100792.47;5053991;28;20045;-66
2022/02/24 07:49:33;;;;;;;13.68;2.97;;;;;;;8.18;64.54;100783.97;5037309;28;20063;-66
2022/02/24 07:52:00;;;;;;;14.85;2.88;;;;;;;8.06;65.47;100785.91;5054783;28;20041;-66
2022/02/24 07:54:27;;;;;;;16.02;2.90;;;;;;;8.18;66.52;100785.78;5054797;28;20048;-66
2022/02/24 07:56:54;;;;;;;12.68;2.83;;;;;;;8.21;65.56;100782.88;5051613;28;20040;-66
2022/02/24 07:59:20;;;;;;;13.00;2.80;;;;;;;8.17;65.67;100787.59;5053925;28;20107;-66
2022/02/24 08:01:47;;;;;;;15.20;2.78;;;;;;;8.22;66.44;100780.09;5023120;28;20054;-65
2022/02/24 08:04:15;;;;;;;11.27;2.72;;;;;;;8.27;64.37;100780.50;5034297;28;20049;-65
2022/02/24 08:06:42;;;;;;;13.32;2.42;;;;;;;8.19;64.61;100764.50;5043101;28;20172;-65
2022/02/24 08:09:09;;;;;;;9.75;2.53;;;;;;;8.15;64.97;100775.47;5052989;28;20086;-65
2022/02/24 08:11:36;;;;;;;13.55;2.55;;;;;;;8.23;64.58;100770.34;5027204;28;20037;-65
2022/02/24 08:14:03;;;;;;;13.48;3.30;;;;;;;8.29;64.78;100768.97;5058140;28;20090;-65
2022/02/24 08:16:30;;;;;;;15.68;2.90;;;;;;;8.26;64.10;100768.28;5031165;28;20056;-65
2022/02/24 08:18:59;;;;;;;13.68;2.83;;;;;;;8.22;64.23;100764.25;5049307;28;20044;-65
2022/02/24 08:21:27;;;;;;;12.25;2.60;;;;;;;8.30;63.76;100768.84;5061266;28;20041;-65
2022/02/24 08:23:53;;;;;;;15.93;3.00;;;;;;;8.33;63.87;100760.63;5057998;28;20072;-65
2022/02/24 08:26:22;;;;;;;16.05;2.67;;;;;;;8.22;64.46;100752.81;5044080;28;20072;-65
2022/02/24 08:28:50;;;;;;;14.38;2.67;;;;;;;8.22;64.36;100756.31;5025159;28;20096;-65
2022/02/24 08:31:17;;;;;;;11.13;2.72;;;;;;;8.24;64.53;100754.38;5060881;28;20116;-64
2022/02/24 08:33:43;;;;;;;17.83;3.10;;;;;;;8.13;64.37;100757.16;5034039;28;20050;-64
2022/02/24 08:36:10;;;;;;;11.48;2.70;;;;;;;8.06;65.09;100743.63;5064269;28;20062;-64
2022/02/24 08:38:37;;;;;;;17.33;2.65;;;;;;;8.14;65.71;100742.13;5053396;28;20052;-65
2022/02/24 08:41:23;;;;;;;11.20;2.63;;;;;;;8.18;65.23;100738.22;5043357;28;20044;-65
2022/02/24 08:43:50;;;;;;;12.70;2.70;;;;;;;8.19;65.41;100735.44;5014730;28;20053;-64
2022/02/24 08:46:17;;;;;;;10.65;2.58;;;;;;;8.19;65.84;100731.97;5031944;28;20453;-65
2022/02/24 08:48:43;;;;;;;8.63;2.35;;;;;;;8.16;66.04;100734.88;5069621;28;20041;-65
2022/02/24 08:51:10;;;;;;;14.82;2.60;;;;;;;8.13;67.17;100737.78;5051220;28;20464;-65
2022/02/24 08:53:37;;;;;;;14.13;2.92;;;;;;;8.13;67.38;100736.00;5056969;28;20465;-65
2022/02/24 08:56:04;;;;;;;10.50;2.55;;;;;;;8.23;66.20;100728.06;5038390;28;20100;-66
2022/02/24 08:58:30;;;;;;;11.27;2.33;;;;;;;8.15;67.22;100715.56;5036228;28;20069;-66
2022/02/24 09:00:57;;;;;;;11.70;2.38;;;;;;;8.16;67.03;100705.81;5047028;28;20049;-65
2022/02/24 09:03:24;;;;;;;10.20;2.40;;;;;;;8.16;67.06;100709.28;5033483;28;20041;-65
2022/02/24 09:05:52;;;;;;;10.57;2.25;;;;;;;8.04;67.18;100695.38;5036068;28;20050;-65
2022/02/24 09:08:19;;;;;;;10.82;2.53;;;;;;;8.06;67.17;100696.09;5036774;28;20068;-66
2022/02/24 09:10:45;;;;;;;15.05;3.20;;;;;;;8.17;67.95;100696.94;5052882;28;20117;-65
2022/02/24 09:13:12;;;;;;;17.50;5.32;;;;;;;8.13;68.07;100691.09;5054656;28;20041;-65
2022/02/24 09:15:39;;;;;;;10.23;2.63;;;;;;;8.18;67.66;100690.66;5038361;28;20076;-66
2022/02/24 09:18:08;;;;;;;26.75;5.80;;;;;;;8.20;69.26;100689.53;5033003;28;20098;-66
2022/02/24 09:20:37;;;;;;;11.38;3.15;;;;;;;8.24;68.99;100692.72;5050184;28;20096;-66
2022/02/24 09:23:04;;;;;;;19.35;3.33;;;;;;;8.16;69.45;100682.84;5051050;28;20040;-66
2022/02/24 09:25:30;;;;;;;17.88;3.50;;;;;;;8.25;69.57;100679.38;5039817;28;20049;-66
2022/02/24 09:27:57;;;;;;;12.45;2.97;;;;;;;8.28;69.69;100680.91;5032333;28;20049;-66
2022/02/24 09:30:25;;;;;;;13.57;3.50;;;;;;;8.28;70.29;100667.72;5064432;28;20100;-66
2022/02/24 09:32:55;;;;;;;12.73;2.92;;;;;;;8.42;71.21;100671.72;5058816;28;20052;-66
2022/02/24 09:35:22;;;;;;;12.27;3.10;;;;;;;8.55;70.97;100661.72;5048358;28;20065;-66
2022/02/24 09:37:49;;;;;;;14.65;3.88;;;;;;;8.61;71.28;100655.00;5038199;28;20045;-67
2022/02/24 09:40:16;;;;;;;8.30;2.80;;;;;;;8.51;70.11;100654.19;5046273;28;20048;-66
2022/02/24 09:43:04;;;;;;;19.10;3.70;;;;;;;8.38;71.08;100649.19;5039814;28;20113;-66
2022/02/24 09:45:31;;;;;;;22.15;3.80;;;;;;;8.43;70.89;100647.81;5035527;28;20051;-66
2022/02/24 09:48:02;;;;;;;16.50;3.78;;;;;;;8.20;70.81;100641.97;5045305;28;20389;-66
2022/02/24 09:50:29;;;;;;;21.90;5.05;;;;;;;8.40;71.18;100629.56;5039736;28;20136;-65
2022/02/24 09:52:56;;;;;;;22.67;3.65;;;;;;;8.44;69.75;100619.56;5046928;28;20072;-65
2022/02/24 09:55:23;;;;;;;16.58;3.65;;;;;;;8.50;69.84;100613.72;5014410;28;20055;-65
2022/02/24 09:57:50;;;;;;;12.98;3.17;;;;;;;8.52;68.92;100608.28;5043524;28;20045;-65
2022/02/24 10:00:18;;;;;;;17.50;4.32;;;;;;;8.54;70.73;100617.72;5045166;28;20481;-66
2022/02/24 10:02:45;;;;;;;19.17;4.03;;;;;;;8.57;71.06;100592.81;5027955;28;20040;-66
2022/02/24 10:05:14;;;;;;;15.30;3.58;;;;;;;8.57;70.50;100587.53;5040619;28;20615;-66
2022/02/24 10:07:43;;;;;;;15.82;4.15;;;;;;;8.56;70.62;100584.03;5018090;28;20140;-66
2022/02/24 10:10:30;;;;;;;15.40;4.28;;;;;;;8.45;70.88;100590.34;5029597;28;20049;-66
2022/02/24 10:13:03;;;;;;;15.90;4.10;;;;;;;8.50;71.99;100581.97;5048527;28;20048;-66
2022/02/24 10:15:31;;;;;;;14.10;3.92;;;;;;;8.41;71.65;100572.25;5047323;28;20059;-65
2022/02/24 10:18:14;;;;;;;13.65;4.15;;;;;;;8.33;72.46;100574.75;5039815;28;20080;-65
2022/02/24 10:20:46;;;;;;;14.40;4.10;;;;;;;8.35;71.86;100563.09;5039798;28;20065;-66
2022/02/24 10:23:16;;;;;;;18.52;4.22;;;;;;;8.37;71.33;100557.66;5041834;28;20120;-66
2022/02/24 10:25:50;;;;;;;17.58;4.03;;;;;;;8.48;71.17;100562.78;5037823;28;20477;-65
2022/02/24 10:28:38;;;;;;;15.27;3.22;;;;;;;8.63;70.61;100563.16;5047621;28;20033;-67
2022/02/24 10:33:49;;;;;;;18.85;3.83;;;;;;;8.62;70.18;100549.09;5069384;27;20402;-65
2022/02/24 10:36:21;;;;;;;14.70;3.50;;;;;;;8.45;71.01;100552.50;5035168;28;20075;-65
2022/02/24 10:39:07;;;;;;;14.48;3.15;;;;;;;8.47;70.38;100555.00;5068746;28;20044;-65
2022/02/24 10:41:38;;;;;;;12.50;3.05;;;;;;;8.59;69.09;100552.03;5068671;28;20389;-65
2022/02/24 10:44:16;;;;;;;14.45;3.10;;;;;;;8.61;69.04;100546.59;5056459;28;20056;-66
2022/02/24 10:46:47;;;;;;;10.20;3.15;;;;;;;8.63;68.57;100548.09;5079002;28;20047;-65
2022/02/24 10:49:27;;;;;;;12.05;3.13;;;;;;;8.84;67.94;100539.09;5022745;28;20736;-65
2022/02/24 10:52:16;;;;;;;11.10;3.20;;;;;;;8.94;67.19;100524.00;5040994;28;20033;-65
2022/02/24 10:55:06;;;;;;;12.57;3.55;;;;;;;9.10;68.83;100522.53;5071623;28;20044;-65
2022/02/24 10:57:33;;;;;;;15.07;4.05;;;;;;;9.67;67.03;100508.97;5053083;28;20063;-65
2022/02/24 11:00:00;;;;;;;16.70;4.05;;;;;;;9.78;66.61;100506.06;5031828;28;20120;-66
2022/02/24 11:02:28;;;;;;;15.25;4.18;;;;;;;10.15;65.88;100502.31;5053117;28;20048;-66
2022/02/24 11:04:56;;;;;;;16.45;3.97;;;;;;;10.75;66.08;100497.00;5059308;28;20493;-66
2022/02/24 11:07:24;;;;;;;16.25;4.10;;;;;;;10.60;64.46;100490.63;5049452;28;20037;-65
2022/02/24 11:09:57;;;;;;;12.10;3.40;;;;;;;10.19;64.93;100485.94;5048509;28;20068;-65
2022/02/24 11:12:29;;;;;;;13.23;3.67;;;;;;;10.04;64.94;100478.75;5069855;28;20045;-65
2022/02/24 11:14:56;;;;;;;12.32;3.55;;;;;;;9.85;64.83;100477.16;5036655;28;20060;-65
2022/02/24 11:17:23;;;;;;;12.70;4.20;;;;;;;10.04;64.43;100468.13;5047812;28;20037;-65
2022/02/24 11:19:50;;;;;;;9.18;3.25;;;;;;;10.84;59.89;100467.81;5069360;28;20053;-65
2022/02/24 11:22:21;;;;;;;11.50;3.58;;;;;;;10.34;62.63;100480.09;5073169;28;20040;-65
2022/02/24 11:24:48;;;;;;;15.02;3.80;;;;;;;9.78;64.52;100463.69;5042529;28;20063;-65
2022/02/24 11:27:23;;;;;;;19.30;4.03;;;;;;;9.67;64.82;100453.34;5030086;28;20065;-65
2022/02/24 11:30:04;;;;;;;12.30;3.78;;;;;;;9.68;64.35;100439.09;5052509;28;20047;-67